createdAt,value
2023-03-12T00:00:54.716Z,92804.47
2023-03-12T00:01:51.322Z,92807.25
2023-03-12T00:02:48.402Z,92809.22
2023-03-12T00:03:45.539Z,92813.06
2023-03-12T00:04:42.510Z,92692.84
2023-03-12T00:05:41.422Z,92814.19
2023-03-12T00:06:38.125Z,92815.53
2023-03-12T00:07:36.624Z,92827.06
2023-03-12T00:08:33.541Z,92814.66
2023-03-12T00:09:30.181Z,92821.63
2023-03-12T00:10:28.457Z,92783.16
2023-03-12T00:11:25.158Z,92824.28
2023-03-12T00:12:21.840Z,92817.81
2023-03-12T00:13:18.517Z,92825.47
2023-03-12T00:14:15.229Z,92787.31
2023-03-12T00:15:12.112Z,92832.94
2023-03-12T00:16:12.790Z,92791.81
2023-03-12T00:17:09.481Z,92833.91
2023-03-12T00:18:06.507Z,92801.19
2023-03-12T00:19:03.143Z,92794.88
2023-03-12T00:19:59.839Z,92840.44
2023-03-12T00:20:56.592Z,92814.19
2023-03-12T00:21:53.227Z,92842.63
2023-03-12T00:22:50.546Z,92836.59
2023-03-12T00:23:49.103Z,92841.19
2023-03-12T00:24:49.884Z,92841.13
2023-03-12T00:25:46.999Z,92847.16
2023-03-12T00:26:44.218Z,92845.44
2023-03-12T00:27:41.208Z,92846.16
2023-03-12T00:28:38.802Z,92852.44
2023-03-12T00:29:36.169Z,92845.09
2023-03-12T00:30:32.814Z,92856.81
2023-03-12T00:31:32.828Z,92859.44
2023-03-12T00:32:29.555Z,92847.41
2023-03-12T00:33:27.131Z,92856.06
2023-03-12T00:34:23.840Z,92802.63
2023-03-12T00:35:20.558Z,92837.34
2023-03-12T00:36:18.957Z,92855.97
2023-03-12T00:37:15.649Z,92856.59
2023-03-12T00:38:12.394Z,92850.88
2023-03-12T00:39:09.915Z,92847.78
2023-03-12T00:40:09.258Z,92791.50
2023-03-12T00:41:06.013Z,92856.44
2023-03-12T00:42:02.702Z,92850.66
2023-03-12T00:42:59.412Z,92857.66
2023-03-12T00:43:56.392Z,92796.56
2023-03-12T00:44:53.073Z,92857.25
2023-03-12T00:45:49.830Z,92860.22
2023-03-12T00:46:46.473Z,92860.16
2023-03-12T00:47:43.100Z,92854.84
2023-03-12T00:48:40.407Z,92861.34
2023-03-12T00:49:37.449Z,92856.63
2023-03-12T00:50:34.165Z,92853.50
2023-03-12T00:51:30.938Z,92855.66
2023-03-12T00:52:27.560Z,92855.13
2023-03-12T00:53:24.256Z,92860.91
2023-03-12T00:54:21.387Z,92852.41
2023-03-12T00:55:18.108Z,92851.88
2023-03-12T00:56:15.486Z,92807.81
2023-03-12T00:57:12.183Z,92857.81
2023-03-12T00:58:08.822Z,92848.03
2023-03-12T00:59:05.482Z,92854.75
2023-03-12T01:00:02.262Z,92854.38
2023-03-12T01:00:59.185Z,92787.34
2023-03-12T01:01:55.812Z,92850.19
2023-03-12T01:02:52.435Z,92851.16
2023-03-12T01:03:52.056Z,92824.59
2023-03-12T01:04:50.000Z,92856.41
2023-03-12T01:05:46.641Z,92774.03
2023-03-12T01:06:43.326Z,92851.38
2023-03-12T01:07:40.218Z,92854.09
2023-03-12T01:08:36.934Z,92858.00
2023-03-12T01:09:33.899Z,92852.38
2023-03-12T01:10:31.018Z,92845.66
2023-03-12T01:11:27.785Z,92788.78
2023-03-12T01:12:24.445Z,92859.19
2023-03-12T01:13:21.619Z,92860.56
2023-03-12T01:14:18.704Z,92864.47
2023-03-12T01:15:17.597Z,92846.22
2023-03-12T01:16:14.725Z,92859.53
2023-03-12T01:17:11.432Z,92862.56
2023-03-12T01:18:08.221Z,92864.66
2023-03-12T01:19:04.920Z,92865.69
2023-03-12T01:20:01.906Z,92873.06
2023-03-12T01:20:59.404Z,92867.59
2023-03-12T01:21:56.060Z,92868.31
2023-03-12T01:22:53.554Z,92856.78
2023-03-12T01:23:51.047Z,92856.16
2023-03-12T01:24:48.308Z,92865.19
2023-03-12T01:25:44.910Z,92863.53
2023-03-12T01:26:41.505Z,92865.31
2023-03-12T01:27:38.204Z,92856.50
2023-03-12T01:28:34.806Z,92864.66
2023-03-12T01:29:31.394Z,92867.94
2023-03-12T01:30:28.815Z,92866.81
2023-03-12T01:31:25.610Z,92864.09
2023-03-12T01:32:22.423Z,92874.72
2023-03-12T01:33:19.074Z,92872.88
2023-03-12T01:34:15.817Z,92871.63
2023-03-12T01:35:12.487Z,92868.44
2023-03-12T01:36:23.296Z,92874.25
2023-03-12T01:37:19.954Z,92871.34
2023-03-12T01:38:16.618Z,92867.94
2023-03-12T01:39:14.072Z,92843.03
2023-03-12T01:40:20.227Z,92878.53
2023-03-12T01:41:16.872Z,92874.69
2023-03-12T01:42:13.436Z,92875.75
2023-03-12T01:43:28.732Z,92873.47
2023-03-12T01:44:25.291Z,92872.69
2023-03-12T01:45:52.937Z,92867.13
2023-03-12T01:46:49.751Z,92867.00
2023-03-12T01:47:46.287Z,92874.13
2023-03-12T01:48:57.172Z,92869.56
2023-03-12T01:49:55.897Z,92876.34
2023-03-12T01:50:52.511Z,92865.94
2023-03-12T01:51:49.094Z,92876.22
2023-03-12T01:52:45.717Z,92860.44
2023-03-12T01:53:47.178Z,92879.84
2023-03-12T01:54:59.694Z,92868.72
2023-03-12T01:55:58.822Z,92870.03
2023-03-12T01:56:56.702Z,92865.84
2023-03-12T01:57:57.924Z,92819.72
2023-03-12T01:58:58.562Z,92868.56
2023-03-12T02:00:02.282Z,92867.13
2023-03-12T02:00:59.807Z,92866.72
2023-03-12T02:01:57.160Z,92813.59
2023-03-12T02:02:59.763Z,92868.72
2023-03-12T02:03:59.837Z,92869.25
2023-03-12T02:05:17.104Z,92863.19
2023-03-12T02:06:15.533Z,92864.00
2023-03-12T02:07:15.642Z,92846.16
2023-03-12T02:08:14.684Z,92856.53
2023-03-12T02:09:13.205Z,92864.91
2023-03-12T02:10:11.005Z,92865.09
2023-03-12T02:11:07.734Z,92859.06
2023-03-12T02:12:05.245Z,92832.34
2023-03-12T02:13:02.003Z,92857.22
2023-03-12T02:13:58.754Z,92850.22
2023-03-12T02:14:55.374Z,92857.53
2023-03-12T02:15:51.986Z,92856.88
2023-03-12T02:16:49.080Z,92863.06
2023-03-12T02:17:46.078Z,92859.38
2023-03-12T02:18:44.382Z,92825.38
2023-03-12T02:20:09.217Z,92847.47
2023-03-12T02:21:23.002Z,92854.25
2023-03-12T02:22:21.136Z,92847.81
2023-03-12T02:23:30.495Z,92854.47
2023-03-12T02:24:36.029Z,92853.66
2023-03-12T02:25:39.729Z,92857.19
2023-03-12T02:26:39.293Z,92856.78
2023-03-12T02:27:37.853Z,92861.09
2023-03-12T02:28:42.679Z,92864.38
2023-03-12T02:29:42.236Z,92870.44
2023-03-12T02:30:42.827Z,92872.41
2023-03-12T02:31:43.896Z,92868.97
2023-03-12T02:32:41.117Z,92868.97
2023-03-12T02:33:37.881Z,92852.31
2023-03-12T02:34:34.877Z,92843.41
2023-03-12T02:35:31.723Z,92885.16
2023-03-12T02:36:28.495Z,92876.34
2023-03-12T02:37:25.115Z,92873.84
2023-03-12T02:38:49.203Z,92738.50
2023-03-12T02:39:54.910Z,92878.44
2023-03-12T02:40:52.656Z,92861.25
2023-03-12T02:41:54.405Z,92876.53
2023-03-12T02:42:52.239Z,92871.47
2023-03-12T02:44:14.703Z,92880.19
2023-03-12T02:45:11.483Z,92876.25
2023-03-12T02:46:09.037Z,92864.13
2023-03-12T02:47:06.023Z,92876.72
2023-03-12T02:48:04.118Z,92876.38
2023-03-12T02:49:01.411Z,92883.00
2023-03-12T02:49:58.169Z,92882.69
2023-03-12T02:50:54.867Z,92880.25
2023-03-12T02:51:52.013Z,92849.47
2023-03-12T02:52:49.824Z,92886.34
2023-03-12T02:53:46.897Z,92860.75
2023-03-12T02:54:43.499Z,92886.44
2023-03-12T02:55:40.077Z,92894.97
2023-03-12T02:56:37.424Z,92876.28
2023-03-12T02:57:37.639Z,92879.44
2023-03-12T02:58:34.345Z,92880.22
2023-03-12T02:59:31.107Z,92880.09
2023-03-12T03:00:27.874Z,92877.47
2023-03-12T03:01:24.838Z,92860.06
2023-03-12T03:02:21.485Z,92843.94
2023-03-12T03:03:18.056Z,92877.22
2023-03-12T03:04:14.664Z,92883.94
2023-03-12T03:05:12.345Z,92880.91
2023-03-12T03:06:09.228Z,92882.75
2023-03-12T03:07:06.023Z,92879.78
2023-03-12T03:08:04.361Z,92881.59
2023-03-12T03:09:02.399Z,92803.56
2023-03-12T03:10:04.497Z,92881.44
2023-03-12T03:11:03.106Z,92867.38
2023-03-12T03:11:59.757Z,92881.72
2023-03-12T03:12:57.767Z,92883.59
2023-03-12T03:13:55.247Z,92860.56
2023-03-12T03:14:51.854Z,92895.84
2023-03-12T03:15:48.554Z,92834.38
2023-03-12T03:16:45.356Z,92903.81
2023-03-12T03:17:41.963Z,92905.22
2023-03-12T03:18:38.641Z,92905.44
2023-03-12T03:19:35.357Z,92901.94
2023-03-12T03:20:32.526Z,92902.00
2023-03-12T03:21:30.472Z,92903.50
2023-03-12T03:22:27.166Z,92898.47
2023-03-12T03:23:24.365Z,92900.97
2023-03-12T03:24:21.129Z,92907.84
2023-03-12T03:25:18.381Z,92906.44
2023-03-12T03:26:18.151Z,92895.28
2023-03-12T03:27:15.672Z,92895.06
2023-03-12T03:28:12.403Z,92903.31
2023-03-12T03:29:09.081Z,92883.28
2023-03-12T03:30:06.566Z,92913.00
2023-03-12T03:31:04.127Z,92892.75
2023-03-12T03:32:00.893Z,92913.91
2023-03-12T03:32:57.553Z,92908.94
2023-03-12T03:33:54.221Z,92912.44
2023-03-12T03:34:50.976Z,92905.09
2023-03-12T03:35:48.849Z,92865.84
2023-03-12T03:36:45.465Z,92920.41
2023-03-12T03:37:42.111Z,92917.97
2023-03-12T03:38:38.725Z,92917.47
2023-03-12T03:39:35.912Z,92926.38
2023-03-12T03:40:32.512Z,92920.56
2023-03-12T03:41:29.200Z,92903.81
2023-03-12T03:42:25.888Z,92918.56
2023-03-12T03:43:23.238Z,92920.19
2023-03-12T03:44:19.989Z,92926.56
2023-03-12T03:45:17.770Z,92917.38
2023-03-12T03:46:15.104Z,92924.16
2023-03-12T03:47:11.697Z,92916.13
2023-03-12T03:48:08.321Z,92928.91
2023-03-12T03:49:05.069Z,92882.03
2023-03-12T03:50:01.861Z,92924.44
2023-03-12T03:51:03.637Z,92843.47
2023-03-12T03:52:00.307Z,92927.66
2023-03-12T03:52:57.077Z,92931.91
2023-03-12T03:53:54.080Z,92934.25
2023-03-12T03:54:50.653Z,92888.81
2023-03-12T03:55:47.716Z,92906.53
2023-03-12T03:56:45.071Z,92906.06
2023-03-12T03:57:41.728Z,92938.50
2023-03-12T03:58:38.381Z,92941.31
2023-03-12T03:59:35.050Z,92933.56
2023-03-12T04:00:31.926Z,92901.22
2023-03-12T04:01:28.701Z,92920.84
2023-03-12T04:02:27.005Z,92944.13
2023-03-12T04:03:23.677Z,92944.78
2023-03-12T04:04:20.398Z,92944.09
2023-03-12T04:05:19.577Z,92946.44
2023-03-12T04:06:16.326Z,92944.72
2023-03-12T04:07:12.951Z,92901.47
2023-03-12T04:08:09.533Z,92949.84
2023-03-12T04:09:06.363Z,92909.13
2023-03-12T04:10:04.468Z,92926.66
2023-03-12T04:11:11.477Z,92958.47
2023-03-12T04:12:08.172Z,92949.72
2023-03-12T04:13:04.766Z,92957.47
2023-03-12T04:14:01.487Z,92944.38
2023-03-12T04:14:58.126Z,92960.69
2023-03-12T04:15:54.719Z,92967.63
2023-03-12T04:16:51.443Z,92961.25
2023-03-12T04:17:48.167Z,92965.22
2023-03-12T04:18:45.189Z,92969.31
2023-03-12T04:19:42.207Z,92966.69
2023-03-12T04:20:38.824Z,92965.66
2023-03-12T04:21:35.459Z,92975.81
2023-03-12T04:22:32.106Z,92971.91
2023-03-12T04:23:28.740Z,92972.50
2023-03-12T04:24:25.392Z,92969.91
2023-03-12T04:25:21.968Z,92959.34
2023-03-12T04:26:18.752Z,92974.47
2023-03-12T04:27:15.451Z,92974.66
2023-03-12T04:28:12.022Z,92975.91
2023-03-12T04:29:08.739Z,92979.19
2023-03-12T04:30:05.794Z,92976.47
2023-03-12T04:31:05.546Z,92970.38
2023-03-12T04:32:02.158Z,92944.41
2023-03-12T04:32:58.826Z,92971.06
2023-03-12T04:33:55.416Z,92976.47
2023-03-12T04:34:52.086Z,92945.97
2023-03-12T04:35:53.153Z,92946.25
2023-03-12T04:36:50.189Z,92982.22
2023-03-12T04:37:46.922Z,92991.91
2023-03-12T04:38:43.614Z,92991.50
2023-03-12T04:39:41.189Z,92997.53
2023-03-12T04:40:37.846Z,92988.41
2023-03-12T04:41:35.709Z,92989.56
2023-03-12T04:42:32.304Z,92952.75
2023-03-12T04:43:29.874Z,92993.66
2023-03-12T04:44:26.497Z,92997.44
2023-03-12T04:45:23.156Z,92998.88
2023-03-12T04:46:19.998Z,92993.44
2023-03-12T04:47:16.659Z,92989.50
2023-03-12T04:48:13.176Z,92988.13
2023-03-12T04:49:10.175Z,92995.69
2023-03-12T04:50:07.499Z,92963.50
2023-03-12T04:51:05.088Z,92996.34
2023-03-12T04:52:01.766Z,93002.38
2023-03-12T04:52:58.417Z,93004.09
2023-03-12T04:53:55.490Z,92996.16
2023-03-12T04:54:52.162Z,93002.16
2023-03-12T04:55:49.387Z,92952.41
2023-03-12T04:56:46.083Z,93008.97
2023-03-12T04:57:42.663Z,93010.50
2023-03-12T04:58:39.497Z,93014.66
2023-03-12T04:59:36.125Z,93011.47
2023-03-12T05:00:32.741Z,93018.25
2023-03-12T05:01:32.618Z,93020.13
2023-03-12T05:02:29.218Z,92968.53
2023-03-12T05:03:25.958Z,93022.25
2023-03-12T05:04:22.600Z,93007.66
2023-03-12T05:05:19.424Z,93016.63
2023-03-12T05:06:16.025Z,93007.63
2023-03-12T05:07:12.884Z,92979.53
2023-03-12T05:08:09.886Z,93015.25
2023-03-12T05:09:06.457Z,93015.72
2023-03-12T05:10:03.372Z,92976.28
2023-03-12T05:10:59.949Z,93025.63
2023-03-12T05:11:56.666Z,93023.69
2023-03-12T05:12:53.420Z,93038.81
2023-03-12T05:13:50.264Z,93034.16
2023-03-12T05:14:46.978Z,93040.75
2023-03-12T05:15:44.203Z,93048.72
2023-03-12T05:16:41.176Z,93040.38
2023-03-12T05:17:37.920Z,93046.09
2023-03-12T05:18:34.846Z,93046.66
2023-03-12T05:19:31.429Z,92990.31
2023-03-12T05:20:28.046Z,93049.47
2023-03-12T05:21:24.676Z,93051.31
2023-03-12T05:22:21.228Z,93046.28
2023-03-12T05:23:17.769Z,93049.78
2023-03-12T05:24:15.412Z,93049.50
2023-03-12T05:25:12.579Z,93050.38
2023-03-12T05:26:18.450Z,93052.94
2023-03-12T05:27:15.059Z,93058.75
2023-03-12T05:28:11.653Z,93059.25
2023-03-12T05:29:08.307Z,93051.59
2023-03-12T05:30:07.183Z,93047.75
2023-03-12T05:31:10.226Z,93011.00
2023-03-12T05:32:07.610Z,92966.44
2023-03-12T05:33:04.316Z,93042.22
2023-03-12T05:34:04.897Z,93020.56
2023-03-12T05:35:01.491Z,93061.50
2023-03-12T05:35:58.280Z,93075.63
2023-03-12T05:36:55.166Z,93002.13
2023-03-12T05:37:51.897Z,93051.22
2023-03-12T05:38:48.446Z,93070.94
2023-03-12T05:39:46.960Z,93062.09
2023-03-12T05:40:43.976Z,93077.00
2023-03-12T05:41:40.609Z,93088.63
2023-03-12T05:42:37.432Z,93035.06
2023-03-12T05:43:34.604Z,93070.13
2023-03-12T05:44:31.179Z,93080.22
2023-03-12T05:45:28.003Z,93079.84
2023-03-12T05:46:26.574Z,93093.13
2023-03-12T05:47:23.275Z,93097.59
2023-03-12T05:48:20.452Z,93091.34
2023-03-12T05:49:17.707Z,93094.88
2023-03-12T05:50:16.372Z,93096.16
2023-03-12T05:51:12.992Z,93100.59
2023-03-12T05:52:10.062Z,93097.88
2023-03-12T05:53:06.755Z,93101.38
2023-03-12T05:54:03.809Z,93095.47
2023-03-12T05:55:00.470Z,93102.63
2023-03-12T05:56:03.470Z,93100.50
2023-03-12T05:57:00.528Z,93105.94
2023-03-12T05:57:57.183Z,93104.97
2023-03-12T05:58:53.889Z,93072.78
2023-03-12T05:59:50.555Z,93120.06
2023-03-12T06:00:49.468Z,93118.53
2023-03-12T06:01:46.601Z,93120.66
2023-03-12T06:02:43.890Z,93123.47
2023-03-12T06:03:40.648Z,93121.63
2023-03-12T06:04:37.348Z,93091.34
2023-03-12T06:05:35.938Z,93120.34
2023-03-12T06:06:34.369Z,93127.63
2023-03-12T06:07:31.021Z,93105.31
2023-03-12T06:08:27.597Z,93134.69
2023-03-12T06:09:24.263Z,93135.13
2023-03-12T06:10:20.996Z,93119.22
2023-03-12T06:11:18.149Z,93146.50
2023-03-12T06:12:14.778Z,93142.84
2023-03-12T06:13:11.718Z,93141.53
2023-03-12T06:14:08.428Z,93146.69
2023-03-12T06:15:05.472Z,93142.75
2023-03-12T06:16:07.684Z,93157.16
2023-03-12T06:17:04.280Z,93142.59
2023-03-12T06:18:00.915Z,93143.63
2023-03-12T06:19:00.388Z,93141.53
2023-03-12T06:19:57.029Z,93146.13
2023-03-12T06:20:53.612Z,93126.16
2023-03-12T06:21:50.506Z,93133.72
2023-03-12T06:22:47.237Z,93158.53
2023-03-12T06:23:44.796Z,93130.72
2023-03-12T06:24:42.697Z,93157.63
2023-03-12T06:25:39.366Z,93163.81
2023-03-12T06:26:36.229Z,93179.84
2023-03-12T06:27:32.963Z,93117.66
2023-03-12T06:28:29.555Z,93159.38
2023-03-12T06:29:26.248Z,93152.91
2023-03-12T06:30:22.864Z,93146.78
2023-03-12T06:31:21.322Z,93165.09
2023-03-12T06:32:18.640Z,93168.13
2023-03-12T06:33:15.224Z,93165.53
2023-03-12T06:34:11.919Z,93169.19
2023-03-12T06:35:08.972Z,93179.25
2023-03-12T06:36:07.989Z,93178.16
2023-03-12T06:37:04.807Z,93144.63
2023-03-12T06:38:01.424Z,93177.44
2023-03-12T06:38:58.053Z,93164.44
2023-03-12T06:39:54.869Z,93130.41
2023-03-12T06:41:02.934Z,93168.97
2023-03-12T06:41:59.509Z,93128.28
2023-03-12T06:42:56.107Z,93166.25
2023-03-12T06:43:52.813Z,93169.91
2023-03-12T06:44:50.319Z,93184.00
2023-03-12T06:45:46.900Z,93184.09
2023-03-12T06:46:44.453Z,93177.09
2023-03-12T06:47:41.136Z,93177.59
2023-03-12T06:48:41.224Z,93177.56
2023-03-12T06:49:38.886Z,93177.00
2023-03-12T06:50:35.836Z,93176.09
2023-03-12T06:51:32.581Z,93156.22
2023-03-12T06:52:29.200Z,93184.19
2023-03-12T06:53:25.941Z,93144.91
2023-03-12T06:54:22.474Z,93166.56
2023-03-12T06:55:19.038Z,93181.25
2023-03-12T06:56:16.219Z,93177.81
2023-03-12T06:57:12.784Z,93180.88
2023-03-12T06:58:09.566Z,93166.69
2023-03-12T06:59:06.390Z,93158.56
2023-03-12T07:00:04.938Z,93148.16
2023-03-12T07:01:01.574Z,93197.88
2023-03-12T07:01:58.389Z,93190.44
2023-03-12T07:02:54.987Z,93190.91
2023-03-12T07:03:51.724Z,93179.53
2023-03-12T07:04:48.329Z,93137.97
2023-03-12T07:05:48.393Z,93213.69
2023-03-12T07:06:50.395Z,93188.78
2023-03-12T07:07:47.037Z,93199.78
2023-03-12T07:08:44.674Z,93202.94
2023-03-12T07:09:41.284Z,93202.59
2023-03-12T07:10:37.940Z,93161.50
2023-03-12T07:11:34.569Z,93194.50
2023-03-12T07:12:31.207Z,93186.38
2023-03-12T07:13:27.803Z,93165.34
2023-03-12T07:14:24.437Z,93210.91
2023-03-12T07:15:21.502Z,93192.47
2023-03-12T07:16:18.220Z,93209.13
2023-03-12T07:17:14.921Z,93204.16
2023-03-12T07:18:12.290Z,93182.19
2023-03-12T07:19:08.970Z,93205.16
2023-03-12T07:20:06.161Z,93170.53
2023-03-12T07:21:02.939Z,93219.00
2023-03-12T07:21:59.570Z,93220.59
2023-03-12T07:22:56.164Z,93226.56
2023-03-12T07:23:53.387Z,93214.28
2023-03-12T07:24:51.370Z,93216.81
2023-03-12T07:25:48.416Z,93231.16
2023-03-12T07:26:46.076Z,93223.63
2023-03-12T07:27:42.698Z,93211.94
2023-03-12T07:28:39.314Z,93172.06
2023-03-12T07:29:35.908Z,93235.78
2023-03-12T07:30:33.744Z,93228.97
2023-03-12T07:31:30.627Z,93192.78
2023-03-12T07:32:27.454Z,93235.28
2023-03-12T07:33:24.172Z,93236.34
2023-03-12T07:34:20.928Z,93238.00
2023-03-12T07:35:17.778Z,93236.06
2023-03-12T07:36:14.564Z,93231.47
2023-03-12T07:37:11.672Z,93221.63
2023-03-12T07:38:10.063Z,93234.22
2023-03-12T07:39:08.161Z,93219.69
2023-03-12T07:40:08.791Z,93227.59
2023-03-12T07:41:05.528Z,93227.75
2023-03-12T07:42:02.288Z,93239.22
2023-03-12T07:42:58.924Z,93228.06
2023-03-12T07:43:55.575Z,93237.16
2023-03-12T07:44:52.220Z,93234.44
2023-03-12T07:45:49.995Z,93242.31
2023-03-12T07:46:47.123Z,93230.53
2023-03-12T07:47:44.675Z,93172.56
2023-03-12T07:48:44.114Z,93227.59
2023-03-12T07:49:41.888Z,93241.41
2023-03-12T07:50:38.660Z,93236.59
2023-03-12T07:51:35.554Z,93242.47
2023-03-12T07:52:32.306Z,93234.53
2023-03-12T07:53:28.911Z,93230.69
2023-03-12T07:54:30.568Z,93228.50
2023-03-12T07:55:27.285Z,93227.47
2023-03-12T07:56:24.117Z,93236.91
2023-03-12T07:57:20.763Z,93207.75
2023-03-12T07:58:18.797Z,93235.66
2023-03-12T07:59:15.584Z,93239.50
2023-03-12T08:00:12.943Z,93146.09
2023-03-12T08:01:09.816Z,93188.81
2023-03-12T08:02:07.048Z,93238.78
2023-03-12T08:03:03.949Z,93233.78
2023-03-12T08:04:02.331Z,93238.19
2023-03-12T08:04:59.035Z,93197.50
2023-03-12T08:06:00.608Z,93234.72
2023-03-12T08:06:57.333Z,93229.75
2023-03-12T08:07:54.258Z,93234.97
2023-03-12T08:08:51.169Z,93234.84
2023-03-12T08:09:49.909Z,93245.41
2023-03-12T08:10:46.856Z,93196.44
2023-03-12T08:11:43.645Z,93241.09
2023-03-12T08:12:40.260Z,93230.25
2023-03-12T08:13:36.841Z,93224.66
2023-03-12T08:14:34.296Z,93191.03
2023-03-12T08:15:30.958Z,93247.59
2023-03-12T08:16:27.566Z,93249.59
2023-03-12T08:17:24.207Z,93237.53
2023-03-12T08:18:22.122Z,93255.28
2023-03-12T08:19:18.724Z,93241.47
2023-03-12T08:20:15.469Z,93248.31
2023-03-12T08:21:16.324Z,93233.09
2023-03-12T08:22:13.220Z,93249.59
2023-03-12T08:23:09.939Z,93240.13
2023-03-12T08:24:06.849Z,93252.16
2023-03-12T08:25:04.253Z,93256.09
2023-03-12T08:26:00.839Z,93250.44
2023-03-12T08:26:57.394Z,93254.03
2023-03-12T08:27:54.107Z,93253.31
2023-03-12T08:28:50.784Z,93250.44
2023-03-12T08:29:47.389Z,93250.72
2023-03-12T08:30:54.877Z,93254.06
2023-03-12T08:32:04.177Z,93266.19
2023-03-12T08:33:01.806Z,93272.56
2023-03-12T08:33:58.477Z,93273.03
2023-03-12T08:34:55.135Z,93230.16
2023-03-12T08:35:51.892Z,93269.75
2023-03-12T08:36:48.644Z,93215.09
2023-03-12T08:37:45.531Z,93266.81
2023-03-12T08:38:42.121Z,93266.09
2023-03-12T08:39:38.871Z,93267.66
2023-03-12T08:40:36.100Z,93260.81
2023-03-12T08:41:32.906Z,93263.63
2023-03-12T08:42:29.494Z,93265.66
2023-03-12T08:43:29.335Z,93262.28
2023-03-12T08:44:26.615Z,93265.97
2023-03-12T08:45:23.254Z,93244.56
2023-03-12T08:46:19.959Z,93245.28
2023-03-12T08:47:16.593Z,93272.56
2023-03-12T08:48:13.244Z,93226.97
2023-03-12T08:49:09.878Z,93272.06
2023-03-12T08:50:07.014Z,93278.75
2023-03-12T08:51:04.412Z,93198.44
2023-03-12T08:52:01.261Z,93262.94
2023-03-12T08:52:58.985Z,93270.03
2023-03-12T08:53:55.707Z,93256.69
2023-03-12T08:54:52.385Z,93262.25
2023-03-12T08:55:49.219Z,93268.16
2023-03-12T08:56:49.039Z,93283.34
2023-03-12T08:57:45.795Z,93271.44
2023-03-12T08:58:42.557Z,93287.28
2023-03-12T08:59:39.289Z,93283.44
2023-03-12T09:00:35.895Z,93254.69
2023-03-12T09:01:32.479Z,93287.13
2023-03-12T09:02:29.173Z,93282.72
2023-03-12T09:03:26.590Z,93274.38
2023-03-12T09:04:23.390Z,93290.88
2023-03-12T09:05:20.882Z,93289.88
2023-03-12T09:06:19.444Z,93281.97
2023-03-12T09:07:18.554Z,93283.84
2023-03-12T09:08:15.908Z,93281.16
2023-03-12T09:09:12.827Z,93286.47
2023-03-12T09:10:10.002Z,93292.97
2023-03-12T09:11:08.938Z,93245.63
2023-03-12T09:12:05.840Z,93288.22
2023-03-12T09:13:03.011Z,93209.28
2023-03-12T09:14:42.433Z,93291.31
2023-03-12T09:15:16.935Z,93286.28
2023-03-12T09:16:13.499Z,93286.06
2023-03-12T09:17:10.399Z,93289.28
2023-03-12T09:18:07.033Z,93293.22
2023-03-12T09:19:04.532Z,93291.84
2023-03-12T09:20:01.299Z,93279.78
2023-03-12T09:20:58.145Z,93286.28
2023-03-12T09:21:54.942Z,93296.03
2023-03-12T09:22:51.853Z,93285.00
2023-03-12T09:23:48.420Z,93277.19
2023-03-12T09:24:45.014Z,93235.38
2023-03-12T09:25:45.623Z,93278.56
2023-03-12T09:26:42.414Z,93284.41
2023-03-12T09:27:44.760Z,93182.13
2023-03-12T09:28:42.596Z,93199.09
2023-03-12T09:29:49.690Z,93280.19
2023-03-12T09:30:53.817Z,93252.72
2023-03-12T09:31:51.622Z,93297.53
2023-03-12T09:32:48.397Z,93296.38
2023-03-12T09:33:45.142Z,93292.41
2023-03-12T09:34:42.059Z,93284.78
2023-03-12T09:35:38.887Z,93260.81
2023-03-12T09:36:35.968Z,93287.13
2023-03-12T09:37:33.117Z,93294.28
2023-03-12T09:38:31.949Z,93296.31
2023-03-12T09:39:28.557Z,93296.06
2023-03-12T09:40:29.487Z,93300.97
2023-03-12T09:41:30.309Z,93260.69
2023-03-12T09:42:35.925Z,93292.13
2023-03-12T09:44:03.674Z,93286.31
2023-03-12T09:45:03.268Z,93290.78
2023-03-12T09:46:01.234Z,93292.63
2023-03-12T09:47:07.699Z,93295.19
2023-03-12T09:48:07.740Z,93297.31
2023-03-12T09:49:15.974Z,93301.97
2023-03-12T09:50:23.210Z,93306.81
2023-03-12T09:51:36.080Z,93302.63
2023-03-12T09:52:38.363Z,93305.63
2023-03-12T09:53:41.211Z,93294.09
2023-03-12T09:55:03.614Z,93308.53
2023-03-12T09:56:04.701Z,93300.34
2023-03-12T09:57:09.414Z,93289.00
2023-03-12T09:58:14.411Z,93305.22
2023-03-12T09:59:13.761Z,93299.56
2023-03-12T10:00:16.788Z,93303.34
2023-03-12T10:01:41.675Z,93305.81
2023-03-12T10:02:54.615Z,93302.50
2023-03-12T10:04:06.854Z,93306.34
2023-03-12T10:05:14.111Z,93305.44
2023-03-12T10:06:18.293Z,93301.75
2023-03-12T10:07:40.040Z,93309.06
2023-03-12T10:08:42.379Z,93308.09
2023-03-12T10:09:45.284Z,93297.69
2023-03-12T10:10:59.382Z,93300.22
2023-03-12T10:12:10.574Z,93301.13
2023-03-12T10:13:33.932Z,93282.81
2023-03-12T10:14:55.276Z,93294.16
2023-03-12T10:16:13.444Z,93295.31
2023-03-12T10:17:18.831Z,93301.34
2023-03-12T10:18:41.413Z,93307.84
2023-03-12T10:20:09.627Z,93307.47
2023-03-12T10:21:12.021Z,93302.88
2023-03-12T10:22:44.005Z,93311.25
2023-03-12T10:24:18.921Z,93301.09
2023-03-12T10:25:39.845Z,93310.06
2023-03-12T10:26:42.934Z,93294.47
2023-03-12T10:27:41.318Z,93289.06
2023-03-12T10:28:43.514Z,93302.78
2023-03-12T10:29:44.871Z,93255.94
2023-03-12T10:30:46.007Z,93298.22
2023-03-12T10:31:51.517Z,93300.38
2023-03-12T10:32:52.431Z,93303.78
2023-03-12T10:34:03.272Z,93299.22
2023-03-12T10:35:04.225Z,93306.75
2023-03-12T10:36:01.040Z,93311.94
2023-03-12T10:37:26.263Z,93310.56
2023-03-12T10:38:29.312Z,93306.72
2023-03-12T10:39:26.256Z,93304.72
2023-03-12T10:40:26.183Z,93310.84
2023-03-12T10:41:25.626Z,93312.06
2023-03-12T10:42:28.117Z,93302.44
2023-03-12T10:43:24.806Z,93303.19
2023-03-12T10:44:23.988Z,93297.19
2023-03-12T10:45:41.502Z,93305.38
2023-03-12T10:46:41.272Z,93300.94
2023-03-12T10:47:43.168Z,93287.84
2023-03-12T10:48:39.862Z,93302.44
2023-03-12T10:49:37.693Z,93309.06
2023-03-12T10:50:39.336Z,93286.34
2023-03-12T10:51:54.472Z,93314.03
2023-03-12T10:52:53.263Z,93320.28
2023-03-12T10:53:49.906Z,93201.81
2023-03-12T10:54:49.520Z,93293.41
2023-03-12T10:56:02.588Z,93271.25
2023-03-12T10:56:59.356Z,93299.38
2023-03-12T10:57:56.858Z,93300.63
2023-03-12T10:58:54.333Z,93285.16
2023-03-12T10:59:51.522Z,93305.88
2023-03-12T11:00:57.005Z,93293.47
2023-03-12T11:01:53.694Z,93299.19
2023-03-12T11:03:03.478Z,93302.88
2023-03-12T11:04:17.884Z,93304.81
2023-03-12T11:05:25.467Z,93296.63
2023-03-12T11:06:29.760Z,93293.47
2023-03-12T11:07:35.453Z,93299.75
2023-03-12T11:08:35.279Z,93285.34
2023-03-12T11:09:32.068Z,93291.50
2023-03-12T11:10:40.858Z,93301.78
2023-03-12T11:11:37.781Z,93297.59
2023-03-12T11:12:39.913Z,93261.34
2023-03-12T11:13:41.771Z,93299.81
2023-03-12T11:14:46.755Z,93258.19
2023-03-12T11:15:43.760Z,93291.47
2023-03-12T11:16:40.419Z,93291.78
2023-03-12T11:17:37.026Z,93283.25
2023-03-12T11:18:37.817Z,93292.59
2023-03-12T11:19:35.492Z,93286.25
2023-03-12T11:20:32.269Z,93298.91
2023-03-12T11:21:31.126Z,93296.84
2023-03-12T11:22:31.994Z,93292.06
2023-03-12T11:23:30.638Z,93302.31
2023-03-12T11:24:27.819Z,93301.78
2023-03-12T11:25:28.993Z,93306.47
2023-03-12T11:26:39.890Z,93296.38
2023-03-12T11:27:49.628Z,93296.47
2023-03-12T11:29:01.212Z,93296.91
2023-03-12T11:30:00.457Z,93285.56
2023-03-12T11:30:58.383Z,93281.06
2023-03-12T11:32:00.224Z,93285.66
2023-03-12T11:32:58.224Z,93233.56